createdAt,value
2019-04-27T00:02:31.442Z,64.71
2019-04-27T00:08:46.192Z,64.95
2019-04-27T00:14:54.968Z,64.57
2019-04-27T00:21:13.461Z,63.31
2019-04-27T00:27:20.877Z,62.90
2019-04-27T00:33:27.213Z,62.94
2019-04-27T00:39:39.492Z,63.08
2019-04-27T00:45:45.513Z,63.23
2019-04-27T00:51:53.578Z,63.19
2019-04-27T00:58:20.079Z,63.04
2019-04-27T01:04:30.549Z,63.05
2019-04-27T01:10:36.324Z,63.10
2019-04-27T01:16:42.141Z,63.11
2019-04-27T01:22:49.244Z,63.25
2019-04-27T01:29:00.692Z,63.29
2019-04-27T01:35:06.584Z,63.37
2019-04-27T01:41:13.130Z,63.27
2019-04-27T01:47:18.947Z,63.43
2019-04-27T01:53:25.755Z,63.52
2019-04-27T01:59:31.547Z,63.44
2019-04-27T02:05:50.437Z,63.34
2019-04-27T02:11:56.324Z,63.28
2019-04-27T02:18:02.166Z,63.21
2019-04-27T02:24:09.790Z,63.15
2019-04-27T02:30:34.760Z,63.13
2019-04-27T02:36:41.986Z,63.22
2019-04-27T02:42:50.011Z,63.26
2019-04-27T02:49:03.579Z,63.31
2019-04-27T02:55:05.635Z,63.35
2019-04-27T03:01:11.645Z,63.50
2019-04-27T03:07:17.386Z,63.63
2019-04-27T03:13:49.430Z,63.71
2019-04-27T03:20:15.808Z,63.88
2019-04-27T03:26:43.510Z,63.97
2019-04-27T03:32:54.875Z,63.98
2019-04-27T03:38:59.906Z,64.04
2019-04-27T03:45:05.757Z,64.10
2019-04-27T03:51:26.514Z,64.14
2019-04-27T03:57:43.986Z,64.24
2019-04-27T04:03:50.301Z,64.00
2019-04-27T04:09:56.386Z,63.87
2019-04-27T04:16:29.531Z,63.94
2019-04-27T04:22:35.425Z,63.60
2019-04-27T04:28:41.463Z,63.30
2019-04-27T04:34:50.086Z,63.25
2019-04-27T04:41:01.355Z,63.29
2019-04-27T04:47:14.386Z,63.06
2019-04-27T04:53:20.754Z,62.65
2019-04-27T04:59:28.956Z,62.12
2019-04-27T05:05:34.664Z,61.91
2019-04-27T05:11:40.437Z,61.85
2019-04-27T05:17:46.312Z,61.92
2019-04-27T05:23:52.189Z,61.69
2019-04-27T05:30:00.151Z,61.44
2019-04-27T05:36:06.160Z,61.28
2019-04-27T05:42:16.896Z,61.21
2019-04-27T05:48:27.559Z,61.29
2019-04-27T05:54:30.417Z,61.26
2019-04-27T06:00:36.244Z,61.21
2019-04-27T06:06:42.155Z,61.28
2019-04-27T06:12:48.591Z,61.69
2019-04-27T06:18:54.505Z,61.97
2019-04-27T06:25:00.551Z,62.18
2019-04-27T06:31:06.661Z,62.92
2019-04-27T06:37:14.470Z,63.31
2019-04-27T06:43:20.260Z,63.58
2019-04-27T06:49:26.267Z,64.16
2019-04-27T06:55:32.269Z,64.76
2019-04-27T07:01:39.003Z,65.12
2019-04-27T07:07:45.082Z,65.17
2019-04-27T07:13:51.496Z,65.51
2019-04-27T07:19:59.241Z,65.49
2019-04-27T07:26:05.142Z,65.63
2019-04-27T07:32:10.944Z,65.14
2019-04-27T07:38:19.175Z,64.89
2019-04-27T07:44:49.992Z,65.07
2019-04-27T07:50:56.146Z,65.03
2019-04-27T07:57:02.316Z,65.31
2019-04-27T08:03:09.992Z,65.33
2019-04-27T08:09:16.275Z,65.49
2019-04-27T08:15:22.774Z,64.87
2019-04-27T08:21:29.022Z,64.95
2019-04-27T08:27:41.098Z,66.01
2019-04-27T08:33:48.643Z,66.67
2019-04-27T08:39:54.923Z,66.99
2019-04-27T08:46:01.079Z,67.09
2019-04-27T08:52:06.944Z,67.52
2019-04-27T08:58:14.045Z,68.15
2019-04-27T09:04:20.209Z,68.52
2019-04-27T09:11:00.566Z,68.54
2019-04-27T09:17:21.233Z,68.30
2019-04-27T09:23:28.609Z,68.00
2019-04-27T09:29:34.680Z,68.00
2019-04-27T09:35:40.651Z,67.54
2019-04-27T09:41:48.412Z,67.93
2019-04-27T09:47:53.923Z,68.41
2019-04-27T09:53:59.682Z,65.62
2019-04-27T10:00:07.314Z,66.06
2019-04-27T10:06:13.338Z,68.88
2019-04-27T10:12:19.423Z,68.62
2019-04-27T10:18:26.556Z,67.93
2019-04-27T10:24:32.488Z,66.69
2019-04-27T10:30:38.742Z,66.35
2019-04-27T10:36:46.109Z,67.05
2019-04-27T10:42:52.008Z,66.74
2019-04-27T10:48:57.722Z,66.73
2019-04-27T10:55:05.838Z,66.99
2019-04-27T11:01:12.038Z,66.62
2019-04-27T11:07:20.494Z,66.30
2019-04-27T11:13:26.526Z,66.58
2019-04-27T11:19:33.171Z,64.70
2019-04-27T11:25:39.286Z,63.63
2019-04-27T11:31:46.593Z,61.98
2019-04-27T11:37:55.598Z,61.93
2019-04-27T11:44:01.470Z,63.36
2019-04-27T11:50:08.251Z,63.71
2019-04-27T11:56:15.745Z,64.33
2019-04-27T12:02:22.075Z,63.07
2019-04-27T12:08:28.004Z,62.32
2019-04-27T12:14:33.950Z,62.88
2019-04-27T12:20:39.848Z,58.58
2019-04-27T12:27:09.917Z,57.51
2019-04-27T12:33:15.812Z,56.66
2019-04-27T12:39:21.616Z,57.59
2019-04-27T12:45:27.708Z,58.71
2019-04-27T12:51:33.539Z,58.68
2019-04-27T12:57:50.883Z,57.45
2019-04-27T13:03:59.049Z,56.15
2019-04-27T13:10:05.695Z,54.63
2019-04-27T13:16:11.723Z,52.82
2019-04-27T13:22:17.732Z,53.05
2019-04-27T13:28:23.576Z,52.36
2019-04-27T13:34:33.041Z,52.19
2019-04-27T13:40:41.075Z,51.71
2019-04-27T13:47:06.106Z,50.64
2019-04-27T13:53:12.033Z,50.65
2019-04-27T13:59:17.996Z,50.03
2019-04-27T14:05:24.154Z,49.67
2019-04-27T14:11:30.589Z,48.33
2019-04-27T14:17:36.604Z,49.81
2019-04-27T14:23:42.475Z,50.24
2019-04-27T14:29:48.970Z,51.70
2019-04-27T14:35:55.136Z,52.82
2019-04-27T14:42:00.928Z,52.16
2019-04-27T14:48:08.280Z,51.27
2019-04-27T14:54:14.212Z,49.77
2019-04-27T15:00:22.056Z,46.33
2019-04-27T15:06:30.143Z,45.75
2019-04-27T15:12:36.328Z,46.57
2019-04-27T15:18:47.105Z,49.48
2019-04-27T15:25:06.431Z,55.18
2019-04-27T15:31:26.112Z,57.03
2019-04-27T15:37:36.360Z,56.82
2019-04-27T15:43:43.015Z,52.64
2019-04-27T15:49:52.917Z,52.27
2019-04-27T15:56:00.029Z,52.11
2019-04-27T16:02:05.522Z,53.11
2019-04-27T16:08:15.269Z,52.96
2019-04-27T16:14:19.686Z,54.17
2019-04-27T16:20:30.070Z,54.87
2019-04-27T16:26:33.196Z,55.24
2019-04-27T16:32:40.350Z,54.92
2019-04-27T16:39:03.632Z,55.53
2019-04-27T16:45:08.671Z,54.67
2019-04-27T16:51:18.316Z,55.96
2019-04-27T16:57:24.271Z,55.81
2019-04-27T17:03:31.751Z,53.95
2019-04-27T17:09:42.192Z,52.25
2019-04-27T17:16:08.693Z,51.44
2019-04-27T17:22:16.255Z,51.71
2019-04-27T17:28:22.488Z,51.36
2019-04-27T17:34:30.320Z,51.61
2019-04-27T17:40:38.976Z,52.52
2019-04-27T17:46:47.617Z,57.81
2019-04-27T17:52:54.768Z,62.48
2019-04-27T17:59:01.027Z,62.62
2019-04-27T18:05:09.564Z,63.04
2019-04-27T18:11:15.036Z,62.20
2019-04-27T18:17:22.425Z,62.04
2019-04-27T18:23:30.282Z,61.20
2019-04-27T18:29:38.709Z,62.90
2019-04-27T18:35:44.778Z,63.28
2019-04-27T18:41:54.219Z,62.93
2019-04-27T18:48:06.671Z,63.10
2019-04-27T18:54:11.839Z,63.01
2019-04-27T19:00:20.191Z,63.47
2019-04-27T19:06:26.039Z,63.40
2019-04-27T19:12:31.892Z,62.88
2019-04-27T19:18:37.855Z,62.32
2019-04-27T19:24:45.721Z,61.94
2019-04-27T19:30:57.677Z,61.74
2019-04-27T19:37:04.309Z,62.18
2019-04-27T19:43:10.382Z,62.09
2019-04-27T19:49:19.071Z,62.33
2019-04-27T19:55:25.035Z,62.28
2019-04-27T20:01:36.501Z,62.16
2019-04-27T20:07:43.056Z,62.33
2019-04-27T20:13:50.605Z,62.65
2019-04-27T20:19:57.599Z,62.69
2019-04-27T20:26:03.594Z,62.86
2019-04-27T20:32:11.403Z,63.00
2019-04-27T20:38:17.498Z,63.22
2019-04-27T20:44:23.503Z,63.11
2019-04-27T20:50:30.877Z,63.29
2019-04-27T20:56:37.822Z,63.74
2019-04-27T21:03:01.951Z,63.48
2019-04-27T21:09:18.839Z,63.39
2019-04-27T21:15:25.254Z,63.13
2019-04-27T21:21:31.132Z,63.01
2019-04-27T21:27:37.168Z,62.88
2019-04-27T21:33:43.297Z,62.91
2019-04-27T21:39:51.430Z,62.56
2019-04-27T21:46:00.583Z,62.46
2019-04-27T21:52:21.334Z,62.19
2019-04-27T21:58:28.939Z,62.07
2019-04-27T22:04:35.412Z,62.06
2019-04-27T22:10:41.385Z,61.73
2019-04-27T22:16:47.650Z,61.51
2019-04-27T22:22:55.087Z,61.05
2019-04-27T22:29:01.602Z,60.80
2019-04-27T22:35:08.172Z,60.67
2019-04-27T22:41:32.935Z,60.34
2019-04-27T22:47:40.734Z,60.43
2019-04-27T22:53:46.608Z,60.24
2019-04-27T23:00:21.960Z,60.18
2019-04-27T23:06:28.464Z,60.06
2019-04-27T23:12:34.270Z,59.84
2019-04-27T23:18:41.375Z,59.97
2019-04-27T23:24:47.402Z,59.96
2019-04-27T23:31:05.159Z,59.68
2019-04-27T23:37:11.474Z,59.76
2019-04-27T23:43:17.445Z,59.57
2019-04-27T23:49:24.100Z,59.16
2019-04-27T23:55:33.104Z,59.07
